Time;durP1;ratioP1;P1;durP2;ratioP2;P2;SDS_P1;SDS_P2;PMS_P1;PMS_P2;Temp;Humidity;BMP_temperature;BMP_pressure;BME280_temperature;BME280_humidity;BME280_pressure;Samples;Min_cycle;Max_cycle;Signal;HPM_P1;HPM_P2
2022/01/04 00:02:18;;;;;;;3.43;0.90;;;7.70;99.90;;;;;;4993217;28;20188;-76
2022/01/04 00:04:43;;;;;;;0.90;0.70;;;7.70;99.90;;;;;;4993005;28;20668;-76
2022/01/04 00:07:09;;;;;;;1.90;0.83;;;7.70;99.90;;;;;;4994246;28;20237;-76
2022/01/04 00:09:39;;;;;;;1.23;1.07;;;7.70;99.90;;;;;;4993092;28;20274;-76
2022/01/04 00:14:51;;;;;;;2.15;1.10;;;7.80;99.90;;;;;;4994521;28;20267;-76
2022/01/04 00:17:16;;;;;;;0.80;0.80;;;7.80;99.90;;;;;;4992841;28;20267;-76
2022/01/04 00:19:42;;;;;;;1.47;0.80;;;7.70;99.90;;;;;;4993795;28;20197;-76
2022/01/04 00:22:08;;;;;;;2.70;1.13;;;7.70;99.90;;;;;;5009088;28;20546;-76
2022/01/04 00:24:34;;;;;;;1.42;1.20;;;7.70;99.90;;;;;;4994141;28;20207;-76
2022/01/04 00:27:00;;;;;;;2.60;0.95;;;7.60;99.90;;;;;;4993872;28;20598;-76
2022/01/04 00:29:25;;;;;;;1.00;0.90;;;7.60;99.90;;;;;;4993514;28;20290;-76
2022/01/04 00:31:51;;;;;;;3.93;1.07;;;7.60;99.90;;;;;;4994119;28;20237;-76
2022/01/04 00:34:16;;;;;;;1.00;0.90;;;7.70;99.90;;;;;;4994264;28;20172;-76
2022/01/04 00:36:42;;;;;;;1.10;0.90;;;7.70;99.90;;;;;;4993978;28;20176;-76
2022/01/04 00:39:08;;;;;;;1.23;1.13;;;7.60;99.90;;;;;;4993509;28;20234;-76
2022/01/04 00:41:34;;;;;;;1.57;0.80;;;7.70;99.90;;;;;;4993953;28;20187;-76
2022/01/04 00:43:59;;;;;;;1.25;1.10;;;7.70;99.90;;;;;;4993965;28;20176;-76
2022/01/04 00:46:25;;;;;;;1.27;0.70;;;7.60;99.90;;;;;;4993713;28;20180;-76
2022/01/04 00:49:10;;;;;;;1.85;0.70;;;7.70;99.90;;;;;;4992264;28;20567;-76
2022/01/04 00:51:40;;;;;;;0.80;0.70;;;7.70;99.90;;;;;;4993626;28;20298;-76
2022/01/04 00:54:07;;;;;;;2.00;0.88;;;7.70;99.90;;;;;;4993807;28;20187;-76
2022/01/04 00:56:33;;;;;;;3.35;0.80;;;7.70;99.90;;;;;;4993726;28;20208;-76
2022/01/04 00:58:58;;;;;;;1.77;0.83;;;7.70;99.90;;;;;;4993265;28;20235;-76
2022/01/04 01:01:24;;;;;;;1.03;0.80;;;7.60;99.90;;;;;;4993540;28;20495;-76
2022/01/04 01:03:50;;;;;;;2.10;0.77;;;7.60;99.90;;;;;;5008669;28;20423;-76
2022/01/04 01:06:17;;;;;;;2.30;1.20;;;7.60;99.90;;;;;;4993583;28;20423;-76
2022/01/04 01:08:42;;;;;;;3.22;0.90;;;7.50;99.90;;;;;;4993212;28;20192;-76
2022/01/04 01:11:09;;;;;;;0.90;0.70;;;7.50;99.90;;;;;;4993405;28;20570;-76
2022/01/04 01:13:35;;;;;;;1.95;1.00;;;7.50;99.90;;;;;;5008413;28;20653;-76
2022/01/04 01:16:01;;;;;;;1.40;0.77;;;7.50;99.90;;;;;;4993470;28;20259;-76
2022/01/04 01:18:27;;;;;;;1.13;0.75;;;7.50;99.90;;;;;;4993365;28;20543;-76
2022/01/04 01:20:53;;;;;;;1.10;0.80;;;7.50;99.90;;;;;;4996595;28;20262;-76
2022/01/04 01:23:20;;;;;;;1.40;0.83;;;7.40;99.90;;;;;;4997515;28;20177;-76
2022/01/04 01:25:47;;;;;;;1.85;0.90;;;7.40;99.90;;;;;;5012583;28;20936;-76
2022/01/04 01:28:14;;;;;;;1.10;1.00;;;7.40;99.90;;;;;;5012094;28;20204;-76
2022/01/04 01:30:41;;;;;;;1.20;0.90;;;7.50;99.90;;;;;;4997265;28;20187;-76
2022/01/04 01:33:07;;;;;;;2.28;0.80;;;7.40;99.90;;;;;;4997371;28;20174;-76
2022/01/04 01:35:34;;;;;;;0.95;0.80;;;7.40;99.90;;;;;;4997010;28;20179;-76
2022/01/04 01:38:00;;;;;;;1.75;0.95;;;7.40;99.90;;;;;;5011701;28;20223;-77
2022/01/04 01:40:25;;;;;;;2.50;0.80;;;7.40;99.90;;;;;;4997158;28;20169;-76
2022/01/04 01:42:51;;;;;;;2.43;0.80;;;7.40;99.90;;;;;;4997113;28;20664;-76
2022/01/04 01:45:17;;;;;;;1.10;0.83;;;7.40;99.90;;;;;;4996033;28;20645;-76
2022/01/04 01:47:44;;;;;;;1.63;0.70;;;7.50;99.90;;;;;;4996511;28;20176;-76
2022/01/04 01:50:11;;;;;;;1.23;0.90;;;7.40;99.90;;;;;;4996957;28;20223;-76
2022/01/04 01:52:38;;;;;;;1.40;1.00;;;7.40;99.90;;;;;;4996899;28;20694;-76
2022/01/04 01:55:05;;;;;;;2.65;0.93;;;7.30;99.90;;;;;;5011974;28;20670;-76
2022/01/04 01:57:31;;;;;;;0.90;0.80;;;7.30;99.90;;;;;;4996291;28;20680;-77
2022/01/04 01:59:57;;;;;;;2.30;0.80;;;7.40;99.90;;;;;;4996553;28;20228;-76
2022/01/04 02:02:23;;;;;;;0.95;0.80;;;7.30;99.90;;;;;;4996901;28;20183;-76
2022/01/04 02:04:48;;;;;;;7.23;0.67;;;7.40;99.90;;;;;;4996586;28;20184;-76
2022/01/04 02:07:15;;;;;;;7.10;1.57;;;7.40;99.90;;;;;;4996570;28;20544;-76
2022/01/04 02:09:45;;;;;;;0.90;0.70;;;7.30;99.90;;;;;;4996145;28;20572;-76
2022/01/04 02:12:11;;;;;;;1.40;0.70;;;7.40;99.90;;;;;;4995737;28;20214;-76
2022/01/04 02:14:37;;;;;;;1.50;0.90;;;7.40;99.90;;;;;;4996400;28;20198;-76
2022/01/04 02:17:03;;;;;;;1.80;0.90;;;7.30;99.90;;;;;;5011664;28;20181;-76
2022/01/04 02:19:28;;;;;;;1.10;0.80;;;7.40;99.90;;;;;;5011100;28;20240;-76
2022/01/04 02:21:54;;;;;;;1.10;0.80;;;7.40;99.90;;;;;;4995097;28;20425;-77
2022/01/04 02:24:22;;;;;;;0.80;0.70;;;7.40;99.90;;;;;;5011310;28;20183;-76
2022/01/04 02:26:48;;;;;;;1.58;0.75;;;7.30;99.90;;;;;;4996270;28;20180;-76
2022/01/04 02:29:13;;;;;;;1.30;0.80;;;7.30;99.90;;;;;;5010842;28;20762;-76
2022/01/04 02:31:39;;;;;;;3.00;1.10;;;7.40;99.90;;;;;;4993909;28;20550;-76
2022/01/04 02:34:05;;;;;;;0.80;0.70;;;7.40;99.90;;;;;;4996040;28;20235;-76
2022/01/04 02:36:30;;;;;;;1.67;0.90;;;7.40;99.90;;;;;;4996031;28;20181;-76
2022/01/04 02:38:56;;;;;;;0.80;0.60;;;7.30;99.90;;;;;;4995815;28;20211;-76
2022/01/04 02:41:22;;;;;;;1.87;0.70;;;7.30;99.90;;;;;;4996066;28;20180;-76
2022/01/04 02:43:47;;;;;;;1.10;0.83;;;7.40;99.90;;;;;;4994860;28;20180;-77
2022/01/04 02:46:13;;;;;;;2.27;0.83;;;7.30;99.90;;;;;;4995799;28;20183;-76
2022/01/04 02:48:43;;;;;;;5.10;0.80;;;7.40;99.90;;;;;;4995469;28;20787;-76
2022/01/04 02:51:10;;;;;;;1.15;0.73;;;7.40;99.90;;;;;;4995751;28;20347;-76
2022/01/04 02:53:35;;;;;;;2.15;0.77;;;7.40;99.90;;;;;;4995732;28;20207;-76
2022/01/04 02:56:01;;;;;;;1.47;1.00;;;7.30;99.90;;;;;;4995694;28;20275;-76
2022/01/04 02:58:27;;;;;;;4.70;1.10;;;7.30;99.90;;;;;;4994069;28;20195;-77
2022/01/04 03:00:52;;;;;;;2.00;1.00;;;7.40;99.90;;;;;;4995666;28;20180;-77
2022/01/04 03:03:18;;;;;;;1.10;0.73;;;7.40;99.90;;;;;;4995523;28;20206;-77
2022/01/04 03:05:43;;;;;;;1.33;0.80;;;7.40;99.90;;;;;;4995611;28;20180;-77
2022/01/04 03:08:09;;;;;;;1.57;0.70;;;7.40;99.90;;;;;;4994943;28;20374;-77
2022/01/04 03:10:35;;;;;;;1.63;0.80;;;7.30;99.90;;;;;;4995335;28;20515;-77
2022/01/04 03:13:02;;;;;;;1.73;0.87;;;7.30;99.90;;;;;;4995520;28;20258;-76
2022/01/04 03:15:28;;;;;;;1.23;1.02;;;7.30;99.90;;;;;;4995218;28;20777;-77
2022/01/04 03:17:54;;;;;;;1.05;0.80;;;7.40;99.90;;;;;;4994994;28;20545;-76
2022/01/04 03:20:19;;;;;;;1.20;0.93;;;7.30;99.90;;;;;;4993954;28;20181;-76
2022/01/04 03:22:45;;;;;;;1.50;0.90;;;7.30;99.90;;;;;;4995497;28;20176;-76
2022/01/04 03:25:11;;;;;;;1.53;1.20;;;7.30;99.90;;;;;;4995355;28;20183;-76
2022/01/04 03:27:37;;;;;;;1.27;1.00;;;7.30;99.90;;;;;;4994836;28;20233;-76
2022/01/04 03:30:04;;;;;;;3.17;1.10;;;7.20;99.90;;;;;;4995160;28;20477;-76
2022/01/04 03:32:30;;;;;;;2.72;1.10;;;7.20;99.90;;;;;;4994909;28;20203;-76
2022/01/04 03:34:56;;;;;;;1.73;1.30;;;7.20;99.90;;;;;;4995111;28;20206;-76
2022/01/04 03:37:21;;;;;;;3.30;1.50;;;7.20;99.90;;;;;;4994761;28;20199;-76
2022/01/04 03:39:47;;;;;;;1.87;1.67;;;7.20;99.90;;;;;;4994556;28;20202;-76
2022/01/04 03:42:13;;;;;;;2.23;1.40;;;7.10;99.90;;;;;;4994827;28;20180;-76
2022/01/04 03:44:39;;;;;;;1.42;1.10;;;7.20;99.90;;;;;;4994737;28;20182;-76
2022/01/04 03:47:05;;;;;;;4.40;1.33;;;7.20;99.90;;;;;;5009971;28;20187;-76
2022/01/04 03:49:30;;;;;;;2.42;1.40;;;7.10;99.90;;;;;;4994456;28;20618;-76
2022/01/04 03:51:56;;;;;;;4.60;1.30;;;7.20;99.90;;;;;;4994713;28;20286;-76
2022/01/04 03:54:22;;;;;;;2.10;1.77;;;7.20;99.90;;;;;;4994580;28;20186;-76
2022/01/04 03:56:48;;;;;;;2.75;1.45;;;7.20;99.90;;;;;;4994476;28;20532;-76
2022/01/04 03:59:14;;;;;;;1.00;0.93;;;7.10;99.90;;;;;;4994114;28;20209;-76
2022/01/04 04:01:40;;;;;;;3.10;1.40;;;7.10;99.90;;;;;;4993320;28;20176;-76
2022/01/04 04:04:06;;;;;;;2.80;1.60;;;7.10;99.90;;;;;;4994567;28;20188;-76
2022/01/04 04:06:31;;;;;;;1.20;1.10;;;7.10;99.90;;;;;;4994271;28;20429;-76
2022/01/04 04:08:57;;;;;;;2.03;1.10;;;7.10;99.90;;;;;;4993913;28;20235;-76
2022/01/04 04:11:26;;;;;;;1.33;1.23;;;7.10;99.90;;;;;;4994239;28;20626;-76
2022/01/04 04:13:51;;;;;;;1.50;1.33;;;7.10;99.90;;;;;;4994214;28;20183;-76
2022/01/04 04:16:17;;;;;;;2.53;1.07;;;7.10;99.90;;;;;;4994223;28;20201;-76
2022/01/04 04:18:43;;;;;;;5.23;1.50;;;7.00;99.90;;;;;;4992500;28;20432;-76
2022/01/04 04:21:08;;;;;;;1.50;0.93;;;7.00;99.90;;;;;;4994166;28;20284;-76
2022/01/04 04:23:34;;;;;;;1.10;1.00;;;7.00;99.90;;;;;;4994109;28;20677;-76
2022/01/04 04:26:00;;;;;;;3.63;1.13;;;7.00;99.90;;;;;;5009307;28;20187;-76
2022/01/04 04:28:26;;;;;;;1.52;1.15;;;7.00;99.90;;;;;;5008773;28;20681;-76
2022/01/04 04:30:51;;;;;;;2.50;1.27;;;7.10;99.90;;;;;;5009007;28;20191;-76
2022/01/04 04:33:17;;;;;;;1.87;1.40;;;7.10;99.90;;;;;;4994023;28;20420;-76
2022/01/04 04:35:42;;;;;;;1.83;1.13;;;7.10;99.90;;;;;;4994009;28;20182;-76
2022/01/04 04:38:08;;;;;;;1.90;1.23;;;7.10;99.90;;;;;;4992567;28;20239;-75
2022/01/04 04:40:34;;;;;;;2.60;1.63;;;7.10;99.90;;;;;;4994052;28;20205;-75
2022/01/04 04:43:00;;;;;;;1.13;1.03;;;7.10;99.90;;;;;;4993926;28;20206;-75
2022/01/04 04:45:26;;;;;;;1.87;1.20;;;7.10;99.90;;;;;;4992943;28;20198;-75
2022/01/04 04:47:51;;;;;;;1.73;1.60;;;7.10;99.90;;;;;;4993440;28;20195;-76
2022/01/04 04:50:17;;;;;;;2.03;1.77;;;7.10;99.90;;;;;;4993974;28;20191;-75
2022/01/04 04:52:43;;;;;;;1.60;1.50;;;7.10;99.90;;;;;;4993702;28;20210;-75
2022/01/04 04:55:09;;;;;;;1.70;1.30;;;7.10;99.90;;;;;;4993135;28;20423;-76
2022/01/04 04:57:34;;;;;;;2.72;1.77;;;7.00;99.90;;;;;;4992264;28;20177;-76
2022/01/04 05:00:00;;;;;;;3.33;1.87;;;7.00;99.90;;;;;;4992411;28;20211;-75
2022/01/04 05:02:26;;;;;;;1.87;1.50;;;7.00;99.90;;;;;;4993705;28;20268;-75
2022/01/04 05:04:51;;;;;;;2.40;1.50;;;7.00;99.90;;;;;;4992493;28;20551;-76
2022/01/04 05:07:17;;;;;;;3.13;1.60;;;7.00;99.90;;;;;;4993394;28;20191;-76
2022/01/04 05:09:42;;;;;;;1.43;1.20;;;7.00;99.90;;;;;;4993279;28;20217;-75
2022/01/04 05:12:08;;;;;;;4.10;1.97;;;7.00;99.90;;;;;;4993452;28;20215;-75
2022/01/04 05:14:37;;;;;;;4.88;2.45;;;7.00;99.90;;;;;;4993574;28;20191;-75
2022/01/04 05:17:03;;;;;;;2.38;1.63;;;7.00;99.90;;;;;;4993416;28;20196;-76
2022/01/04 05:19:29;;;;;;;2.88;1.30;;;7.00;99.90;;;;;;4992983;28;20729;-75
2022/01/04 05:21:54;;;;;;;2.60;1.63;;;7.00;99.90;;;;;;4993544;28;20195;-75
2022/01/04 05:24:20;;;;;;;2.33;1.70;;;7.00;99.90;;;;;;4992346;28;20188;-76
2022/01/04 05:26:45;;;;;;;2.70;1.30;;;7.00;99.90;;;;;;4993555;28;20192;-76
2022/01/04 05:29:11;;;;;;;2.00;1.43;;;7.00;99.90;;;;;;4992054;28;20231;-76
2022/01/04 05:31:37;;;;;;;1.03;0.90;;;6.90;99.90;;;;;;4993522;28;20742;-75
2022/01/04 05:34:02;;;;;;;3.50;1.50;;;6.90;99.90;;;;;;4993654;28;20183;-75
2022/01/04 05:36:28;;;;;;;1.53;1.43;;;7.00;99.90;;;;;;4992243;28;20213;-75
2022/01/04 05:38:53;;;;;;;2.40;1.57;;;7.00;99.90;;;;;;5007965;28;20296;-76
2022/01/04 05:41:19;;;;;;;2.23;1.53;;;7.10;99.90;;;;;;4993240;28;20180;-76
2022/01/04 05:43:46;;;;;;;2.10;1.67;;;7.00;99.90;;;;;;5007247;28;20191;-75
2022/01/04 05:46:12;;;;;;;1.73;1.25;;;7.00;99.90;;;;;;4990994;28;20671;-74
2022/01/04 05:48:37;;;;;;;1.50;1.10;;;7.00;99.90;;;;;;4991425;28;20196;-74
2022/01/04 05:51:03;;;;;;;1.77;1.50;;;7.00;99.90;;;;;;5008221;28;20183;-74
2022/01/04 05:53:30;;;;;;;1.90;1.40;;;7.00;99.90;;;;;;4993189;28;20176;-74
2022/01/04 05:55:55;;;;;;;1.50;1.40;;;7.00;99.90;;;;;;4993254;28;20176;-74
2022/01/04 05:58:21;;;;;;;1.47;1.17;;;6.90;99.90;;;;;;4992861;28;20279;-74
2022/01/04 06:00:46;;;;;;;2.20;1.50;;;7.00;99.90;;;;;;4993320;28;20172;-74
2022/01/04 06:03:12;;;;;;;1.60;1.20;;;7.00;99.90;;;;;;4993186;28;20230;-74
2022/01/04 06:05:37;;;;;;;1.67;1.20;;;7.00;99.90;;;;;;5007990;28;20180;-74
2022/01/04 06:08:03;;;;;;;1.67;1.57;;;7.00;99.90;;;;;;4995659;28;20200;-74
2022/01/04 06:10:36;;;;;;;1.63;1.33;;;7.00;99.90;;;;;;4995332;28;20665;-74
2022/01/04 06:15:28;;;;;;;1.80;1.55;;;7.00;99.90;;;;;;4996335;28;20205;-74
2022/01/04 06:17:54;;;;;;;1.70;1.60;;;7.00;99.90;;;;;;4995982;28;20177;-74
2022/01/04 06:20:22;;;;;;;5.67;2.20;;;6.90;99.90;;;;;;4996425;28;20250;-76
2022/01/04 06:22:49;;;;;;;2.95;1.85;;;6.90;99.90;;;;;;4995276;28;20181;-74
2022/01/04 06:25:17;;;;;;;3.97;1.80;;;6.90;99.90;;;;;;5011422;28;20182;-76
2022/01/04 06:27:51;;;;;;;4.20;2.05;;;6.90;99.90;;;;;;4995883;28;20183;-76
2022/01/04 06:30:18;;;;;;;4.78;1.88;;;7.00;99.90;;;;;;5011219;28;20652;-76
2022/01/04 06:32:45;;;;;;;3.08;1.90;;;6.90;99.90;;;;;;4996213;28;20570;-76
2022/01/04 06:35:13;;;;;;;3.13;2.03;;;6.90;99.90;;;;;;4996113;28;20191;-75
2022/01/04 06:37:41;;;;;;;2.28;2.05;;;6.90;99.90;;;;;;5010494;28;20600;-76
2022/01/04 06:40:08;;;;;;;5.00;2.35;;;6.90;99.90;;;;;;4995495;28;20190;-76
2022/01/04 06:42:34;;;;;;;3.20;1.90;;;6.90;99.90;;;;;;4995424;28;20182;-76
2022/01/04 06:44:59;;;;;;;3.60;2.30;;;6.90;99.90;;;;;;4995869;28;20546;-75
2022/01/04 06:47:25;;;;;;;4.80;2.83;;;7.00;99.90;;;;;;4994583;28;20187;-76
2022/01/04 06:49:50;;;;;;;5.80;2.70;;;6.90;99.90;;;;;;4995871;28;20219;-73
2022/01/04 06:52:16;;;;;;;5.73;3.60;;;6.90;99.90;;;;;;4995930;28;20664;-76
2022/01/04 06:54:42;;;;;;;4.17;2.77;;;6.90;99.90;;;;;;4997206;28;20223;-76
2022/01/04 06:57:08;;;;;;;2.77;2.50;;;6.90;99.90;;;;;;4995773;28;20187;-76
2022/01/04 06:59:33;;;;;;;3.83;2.87;;;6.90;99.90;;;;;;4995202;28;20192;-75
2022/01/04 07:02:00;;;;;;;4.70;3.10;;;6.90;99.90;;;;;;4995454;28;20427;-75
2022/01/04 07:04:26;;;;;;;8.02;3.40;;;6.90;99.90;;;;;;4995498;28;20190;-75
2022/01/04 07:06:51;;;;;;;5.10;3.63;;;6.90;99.90;;;;;;5010578;28;20573;-75
2022/01/04 07:09:17;;;;;;;5.53;4.97;;;6.90;99.90;;;;;;4993936;28;20201;-75
2022/01/04 07:11:43;;;;;;;5.10;4.30;;;7.00;99.90;;;;;;4995298;28;20329;-75
2022/01/04 07:14:09;;;;;;;8.03;5.00;;;7.00;99.90;;;;;;5010301;28;20326;-76
2022/01/04 07:16:34;;;;;;;7.03;5.67;;;7.00;99.90;;;;;;4995394;28;20422;-75
2022/01/04 07:19:00;;;;;;;9.40;6.43;;;7.00;99.90;;;;;;4994619;28;20195;-75
2022/01/04 07:21:26;;;;;;;6.60;6.00;;;7.00;99.90;;;;;;4995351;28;20188;-75
2022/01/04 07:23:54;;;;;;;7.23;6.20;;;6.90;99.90;;;;;;4995121;28;20181;-73
2022/01/04 07:26:20;;;;;;;7.85;6.03;;;6.90;99.90;;;;;;4995125;28;20455;-75
2022/01/04 07:28:47;;;;;;;8.90;6.43;;;7.00;99.90;;;;;;4994645;28;20196;-75
2022/01/04 07:31:14;;;;;;;7.65;6.38;;;7.00;99.90;;;;;;4994926;28;20204;-75
2022/01/04 07:33:40;;;;;;;10.48;7.90;;;7.10;99.90;;;;;;5010285;28;20180;-75
2022/01/04 07:36:07;;;;;;;9.30;8.30;;;7.00;99.90;;;;;;4995115;28;20239;-76
2022/01/04 07:38:33;;;;;;;10.20;8.25;;;7.00;99.90;;;;;;5009597;28;20211;-75
2022/01/04 07:40:59;;;;;;;8.80;7.35;;;7.00;99.90;;;;;;4995019;28;20238;-75
2022/01/04 07:43:25;;;;;;;9.23;7.87;;;7.00;99.90;;;;;;4994818;28;20182;-75
2022/01/04 07:45:50;;;;;;;8.80;7.87;;;7.00;99.90;;;;;;4994866;28;20415;-75
2022/01/04 07:48:16;;;;;;;10.93;8.23;;;7.00;99.90;;;;;;4994174;28;20249;-76
2022/01/04 07:50:42;;;;;;;9.27;8.37;;;7.00;99.90;;;;;;4994682;28;20172;-76
2022/01/04 07:53:08;;;;;;;13.07;9.30;;;7.00;99.90;;;;;;4994654;28;20223;-76
2022/01/04 07:55:35;;;;;;;16.92;8.27;;;7.00;99.90;;;;;;4994583;28;20287;-75
2022/01/04 07:58:00;;;;;;;13.80;8.93;;;7.10;99.90;;;;;;4994169;28;20223;-75
2022/01/04 08:00:27;;;;;;;11.33;8.77;;;7.00;99.90;;;;;;4994498;28;20180;-75
2022/01/04 08:02:54;;;;;;;9.55;8.10;;;7.00;99.90;;;;;;4994690;28;20470;-76
2022/01/04 08:05:20;;;;;;;11.10;9.48;;;7.10;99.90;;;;;;4994523;28;20195;-76
2022/01/04 08:07:46;;;;;;;12.88;8.65;;;7.10;99.90;;;;;;4994058;28;20184;-75
2022/01/04 08:10:12;;;;;;;13.23;9.80;;;7.00;99.90;;;;;;4994387;28;20527;-75
2022/01/04 08:12:39;;;;;;;13.90;10.10;;;7.00;99.90;;;;;;4994239;28;20466;-75
2022/01/04 08:15:05;;;;;;;13.30;9.80;;;7.00;99.90;;;;;;4994288;28;20174;-76
2022/01/04 08:17:31;;;;;;;11.13;8.95;;;7.00;99.90;;;;;;4993789;28;20176;-76
2022/01/04 08:19:58;;;;;;;9.20;8.17;;;7.00;99.90;;;;;;4994214;28;20247;-75
2022/01/04 08:22:23;;;;;;;12.40;8.68;;;7.10;99.90;;;;;;5009176;28;20852;-75
2022/01/04 08:24:49;;;;;;;11.80;8.20;;;7.00;99.90;;;;;;4993892;28;20268;-76
2022/01/04 08:27:15;;;;;;;9.57;8.10;;;7.00;99.90;;;;;;4994193;28;20267;-75
2022/01/04 08:29:41;;;;;;;12.00;8.33;;;7.00;99.90;;;;;;4992997;28;20539;-76
2022/01/04 08:32:07;;;;;;;10.33;7.50;;;7.00;99.90;;;;;;4993895;28;20473;-75
2022/01/04 08:34:32;;;;;;;12.33;7.50;;;7.00;99.90;;;;;;4994019;28;20448;-76
2022/01/04 08:36:58;;;;;;;13.10;8.20;;;7.00;99.90;;;;;;4993880;28;20723;-75
2022/01/04 08:39:26;;;;;;;11.60;7.70;;;7.00;99.90;;;;;;4993534;28;20203;-75
2022/01/04 08:41:55;;;;;;;12.80;7.35;;;7.00;99.90;;;;;;4993910;28;20183;-75
2022/01/04 08:44:22;;;;;;;8.95;7.30;;;7.00;99.90;;;;;;4993858;28;20568;-75
2022/01/04 08:46:47;;;;;;;8.43;6.95;;;7.00;99.90;;;;;;4993754;28;20234;-75
2022/01/04 08:49:13;;;;;;;8.53;6.83;;;7.00;99.90;;;;;;4993421;28;20213;-75
2022/01/04 08:51:39;;;;;;;9.73;7.83;;;7.10;99.90;;;;;;5008958;28;20215;-75
2022/01/04 08:54:05;;;;;;;7.93;7.10;;;7.10;99.90;;;;;;4993682;28;20455;-75
2022/01/04 08:56:32;;;;;;;7.32;6.45;;;7.10;99.90;;;;;;4994083;28;20179;-75
2022/01/04 08:58:58;;;;;;;9.80;7.00;;;7.20;99.90;;;;;;4993294;28;20202;-76
2022/01/04 09:01:24;;;;;;;7.40;6.10;;;7.10;99.90;;;;;;4993761;28;20169;-75
2022/01/04 09:03:50;;;;;;;7.80;6.63;;;7.20;99.90;;;;;;4992564;28;20184;-75
2022/01/04 09:06:16;;;;;;;11.10;7.13;;;7.20;99.90;;;;;;4992407;28;20180;-75
2022/01/04 09:08:42;;;;;;;8.43;6.03;;;7.20;99.90;;;;;;4993067;28;20275;-76
2022/01/04 09:11:10;;;;;;;10.98;6.78;;;7.20;99.90;;;;;;4993304;28;20176;-75
2022/01/04 09:13:42;;;;;;;9.27;6.45;;;7.20;99.90;;;;;;5008636;28;20181;-75
2022/01/04 09:18:43;;;;;;;10.32;6.47;;;7.30;99.90;;;;;;4993173;28;20204;-76
2022/01/04 09:21:19;;;;;;;8.65;6.18;;;7.30;99.90;;;;;;4993335;28;20170;-75
2022/01/04 09:23:46;;;;;;;8.80;5.13;;;7.20;99.90;;;;;;4993486;28;20168;-75
2022/01/04 09:26:14;;;;;;;8.25;5.75;;;7.20;99.90;;;;;;4993479;28;20582;-76
2022/01/04 09:28:40;;;;;;;6.70;6.10;;;7.20;99.90;;;;;;4992981;28;20277;-76
2022/01/04 09:31:06;;;;;;;9.85;6.32;;;7.30;99.90;;;;;;4993104;28;20176;-76
2022/01/04 09:33:32;;;;;;;6.17;5.67;;;7.40;99.90;;;;;;5008365;28;20187;-76
2022/01/04 09:35:58;;;;;;;8.05;5.43;;;7.40;99.90;;;;;;4992046;28;20196;-76
2022/01/04 09:38:24;;;;;;;10.17;5.73;;;7.50;99.90;;;;;;5008127;28;20317;-76
2022/01/04 09:40:51;;;;;;;8.40;5.60;;;7.50;99.90;;;;;;5009596;28;20434;-76
2022/01/04 09:43:18;;;;;;;9.63;5.93;;;7.40;99.90;;;;;;5011744;28;20416;-76
2022/01/04 09:45:43;;;;;;;6.60;5.47;;;7.40;99.90;;;;;;4997147;28;20269;-76
2022/01/04 09:48:09;;;;;;;6.60;5.50;;;7.30;99.90;;;;;;4995475;28;20289;-76
2022/01/04 09:50:38;;;;;;;10.90;5.57;;;7.40;99.90;;;;;;5012006;28;20192;-76
2022/01/04 09:53:06;;;;;;;7.00;5.13;;;7.40;99.90;;;;;;4996649;28;20203;-76
2022/01/04 09:55:34;;;;;;;7.15;5.82;;;7.40;99.90;;;;;;4996687;28;20664;-76
2022/01/04 09:58:00;;;;;;;4.65;3.90;;;7.40;99.90;;;;;;5011457;28;20199;-76
2022/01/04 10:00:27;;;;;;;7.05;4.90;;;7.40;99.90;;;;;;4996487;28;20174;-75
2022/01/04 10:03:29;;;;;;;8.20;5.78;;;7.50;99.90;;;;;;4996542;28;20180;-76
2022/01/04 10:06:15;;;;;;;7.47;5.40;;;7.50;99.90;;;;;;4996145;28;20860;-76
2022/01/04 10:08:53;;;;;;;7.38;4.90;;;7.50;99.90;;;;;;5009930;28;20261;-75
2022/01/04 10:11:33;;;;;;;4.95;4.45;;;7.60;99.90;;;;;;4996265;28;20226;-76
2022/01/04 10:14:18;;;;;;;6.65;4.35;;;7.60;99.90;;;;;;4996813;28;20179;-75
2022/01/04 10:16:54;;;;;;;8.40;4.35;;;7.60;99.90;;;;;;4996483;28;20264;-75
2022/01/04 10:19:30;;;;;;;4.20;3.47;;;7.60;99.90;;;;;;4995894;28;20201;-75
2022/01/04 10:22:17;;;;;;;4.82;3.80;;;7.60;99.90;;;;;;4996467;28;20180;-75
2022/01/04 10:24:45;;;;;;;5.50;3.42;;;7.60;99.90;;;;;;4996265;28;20549;-75
2022/01/04 10:27:24;;;;;;;3.95;3.55;;;7.50;99.90;;;;;;4996264;28;20288;-75
2022/01/04 10:30:22;;;;;;;6.50;3.53;;;7.50;99.90;;;;;;4996111;28;20327;-75
2022/01/04 10:32:50;;;;;;;3.97;3.45;;;7.50;99.90;;;;;;4996089;28;20212;-76
2022/01/04 10:35:26;;;;;;;9.88;3.50;;;7.50;99.90;;;;;;4996312;28;20199;-76
2022/01/04 10:37:52;;;;;;;4.53;2.83;;;7.50;99.90;;;;;;4995482;28;20191;-76
2022/01/04 10:40:19;;;;;;;5.63;3.70;;;7.60;99.90;;;;;;4998748;28;20554;-76
2022/01/04 10:42:45;;;;;;;4.97;2.90;;;7.60;99.90;;;;;;4997716;28;20183;-75
2022/01/04 10:45:42;;;;;;;4.77;3.60;;;7.60;99.90;;;;;;4995466;28;20715;-75
2022/01/04 10:48:14;;;;;;;6.63;3.40;;;7.50;99.90;;;;;;4983862;28;20225;-75
2022/01/04 10:50:40;;;;;;;12.48;2.80;;;7.60;99.90;;;;;;4995831;28;20641;-75
2022/01/04 10:53:15;;;;;;;8.98;3.58;;;7.50;99.90;;;;;;4995000;28;20227;-75
2022/01/04 10:55:40;;;;;;;5.10;3.75;;;7.60;99.90;;;;;;4995701;28;20516;-75
2022/01/04 10:58:06;;;;;;;6.77;3.10;;;7.60;99.90;;;;;;4995237;28;20255;-75
2022/01/04 11:00:32;;;;;;;6.97;3.57;;;7.60;99.90;;;;;;4994357;28;20372;-76
2022/01/04 11:03:00;;;;;;;5.53;3.80;;;7.50;99.90;;;;;;4995533;28;20172;-76
2022/01/04 11:05:26;;;;;;;7.35;3.22;;;7.60;99.90;;;;;;4995562;28;20190;-75
2022/01/04 11:08:05;;;;;;;5.63;2.63;;;7.50;99.90;;;;;;4995137;28;20176;-75
2022/01/04 11:10:35;;;;;;;3.20;2.40;;;7.50;99.90;;;;;;4995618;28;20518;-75
2022/01/04 11:13:02;;;;;;;6.15;3.63;;;7.50;99.90;;;;;;4995255;28;20206;-75
2022/01/04 11:15:28;;;;;;;6.80;2.70;;;7.50;99.90;;;;;;4995371;28;20192;-75
2022/01/04 11:17:56;;;;;;;5.15;2.58;;;7.50;99.90;;;;;;5009786;28;20660;-75
2022/01/04 11:20:23;;;;;;;6.65;2.40;;;7.50;99.90;;;;;;4995312;28;20261;-75
2022/01/04 11:22:50;;;;;;;3.25;2.30;;;7.40;99.90;;;;;;4995190;28;20648;-74
2022/01/04 11:25:19;;;;;;;12.60;2.65;;;7.40;99.90;;;;;;4995042;28;20226;-75
2022/01/04 11:27:46;;;;;;;6.95;2.70;;;7.40;99.90;;;;;;4994677;28;20315;-75
2022/01/04 11:30:21;;;;;;;9.75;2.67;;;7.50;99.90;;;;;;4995115;28;20230;-74
2022/01/04 11:32:52;;;;;;;11.35;3.35;;;7.50;99.90;;;;;;4995069;28;20210;-75
2022/01/04 11:35:21;;;;;;;5.18;3.10;;;7.50;99.90;;;;;;4995108;28;20176;-74
2022/01/04 11:37:58;;;;;;;5.25;3.22;;;7.40;99.90;;;;;;4994436;28;20191;-75
2022/01/04 11:40:34;;;;;;;4.22;2.72;;;7.50;99.90;;;;;;5009796;28;20195;-75
2022/01/04 11:43:01;;;;;;;7.90;3.58;;;7.50;99.90;;;;;;5010144;28;20188;-75
2022/01/04 11:45:48;;;;;;;7.38;3.40;;;7.60;99.90;;;;;;4995114;28;20184;-75
2022/01/04 11:48:39;;;;;;;6.22;3.13;;;7.60;99.90;;;;;;4994357;28;20511;-75
2022/01/04 11:51:07;;;;;;;5.05;3.63;;;7.60;99.90;;;;;;4994721;28;20231;-75
2022/01/04 11:53:34;;;;;;;4.40;3.45;;;7.60;99.90;;;;;;4994956;28;20176;-75
2022/01/04 11:56:04;;;;;;;11.63;3.05;;;7.60;99.90;;;;;;5010795;28;20172;-76
2022/01/04 11:58:51;;;;;;;5.72;3.13;;;7.70;99.90;;;;;;4994197;28;20601;-76
2022/01/04 12:01:27;;;;;;;4.28;3.05;;;7.80;99.90;;;;;;4994591;28;20173;-75
2022/01/04 12:03:53;;;;;;;6.65;4.05;;;7.90;99.90;;;;;;4994351;28;20503;-75
2022/01/04 12:06:20;;;;;;;5.37;3.57;;;7.90;99.90;;;;;;4994266;28;20181;-75
2022/01/04 12:08:54;;;;;;;5.35;3.53;;;7.90;99.90;;;;;;4994012;28;20800;-75
2022/01/04 12:11:25;;;;;;;11.57;4.22;;;7.90;99.90;;;;;;4994250;28;20202;-75
2022/01/04 12:13:59;;;;;;;10.20;5.18;;;7.90;99.90;;;;;;4994176;28;20175;-75
2022/01/04 12:16:35;;;;;;;9.40;4.53;;;7.90;99.90;;;;;;4994017;28;20194;-75
2022/01/04 12:19:04;;;;;;;8.77;4.43;;;7.90;99.90;;;;;;5008800;28;20206;-75
2022/01/04 12:21:32;;;;;;;7.13;4.93;;;8.00;99.90;;;;;;4992880;28;20542;-74
2022/01/04 12:23:58;;;;;;;8.18;5.05;;;7.90;99.90;;;;;;4994012;28;20267;-75
2022/01/04 12:26:31;;;;;;;8.23;5.10;;;7.90;99.90;;;;;;4993878;28;20203;-75
2022/01/04 12:28:58;;;;;;;8.63;5.57;;;8.00;99.90;;;;;;4993533;28;20454;-75
2022/01/04 12:31:24;;;;;;;6.47;5.88;;;7.90;99.90;;;;;;4993994;28;20250;-75
2022/01/04 12:34:00;;;;;;;7.93;5.47;;;7.90;99.90;;;;;;4994296;28;20227;-75
2022/01/04 12:36:48;;;;;;;7.55;5.57;;;8.00;99.90;;;;;;4993616;28;20181;-75
2022/01/04 12:40:08;;;;;;;9.65;6.72;;;7.90;99.90;;;;;;4992252;28;20245;-75
2022/01/04 12:42:34;;;;;;;11.70;6.90;;;7.90;99.90;;;;;;4933977;29;20302;-75
2022/01/04 12:45:01;;;;;;;10.10;6.00;;;8.00;99.90;;;;;;4981371;28;20218;-75
2022/01/04 12:47:28;;;;;;;17.27;6.50;;;8.00;99.90;;;;;;4993424;28;20183;-74
2022/01/04 12:49:58;;;;;;;13.43;6.97;;;8.00;99.90;;;;;;5008742;28;20696;-75
2022/01/04 12:52:23;;;;;;;12.20;7.80;;;8.00;99.90;;;;;;4993562;28;20211;-75
2022/01/04 12:54:49;;;;;;;9.87;7.90;;;8.10;99.90;;;;;;4993729;28;20180;-74
2022/01/04 12:57:22;;;;;;;9.80;6.30;;;8.00;99.90;;;;;;4993837;28;20671;-75
2022/01/04 12:59:51;;;;;;;14.50;8.43;;;8.00;99.90;;;;;;4993167;28;20195;-75
2022/01/04 13:02:22;;;;;;;7.07;6.35;;;8.00;99.90;;;;;;4993603;28;20176;-75
2022/01/04 13:04:52;;;;;;;8.95;7.95;;;8.00;99.90;;;;;;5008662;28;20292;-74
2022/01/04 13:07:41;;;;;;;9.80;7.90;;;8.00;99.90;;;;;;4993668;28;20187;-75